createdAt,value
2022-09-27T00:00:38.088Z,98571.00
2022-09-27T00:04:55.818Z,98566.94
2022-09-27T00:09:11.842Z,98568.72
2022-09-27T00:13:27.984Z,98566.44
2022-09-27T00:17:44.190Z,98556.41
2022-09-27T00:22:01.666Z,98546.00
2022-09-27T00:26:17.706Z,98554.19
2022-09-27T00:30:33.624Z,98553.44
2022-09-27T00:34:49.596Z,98549.75
2022-09-27T00:39:05.676Z,98539.41
2022-09-27T00:43:23.877Z,98541.22
2022-09-27T00:48:01.277Z,98536.97
2022-09-27T00:52:29.785Z,98528.13
2022-09-27T00:56:46.738Z,98515.69
2022-09-27T01:01:06.331Z,98506.72
2022-09-27T01:05:24.983Z,98517.59
2022-09-27T01:09:41.051Z,98523.06
2022-09-27T01:14:18.599Z,98504.19
2022-09-27T01:18:35.780Z,98501.56
2022-09-27T01:23:04.598Z,98498.31
2022-09-27T01:27:29.453Z,98504.03
2022-09-27T01:32:04.240Z,98482.09
2022-09-27T01:36:31.663Z,98476.72
2022-09-27T01:41:05.742Z,98479.41
2022-09-27T01:45:49.132Z,98466.41
2022-09-27T01:50:48.412Z,98462.37
2022-09-27T01:55:08.137Z,98453.87
2022-09-27T01:59:31.918Z,98449.16
2022-09-27T02:03:51.429Z,98445.94
2022-09-27T02:08:14.578Z,98436.00
2022-09-27T02:12:40.131Z,98430.75
2022-09-27T02:17:00.550Z,98427.25
2022-09-27T02:21:18.354Z,98428.84
2022-09-27T02:25:55.352Z,98434.53
2022-09-27T02:30:13.768Z,98426.50
2022-09-27T02:34:33.281Z,98430.37
2022-09-27T02:38:49.467Z,98433.94
2022-09-27T02:43:05.961Z,98430.94
2022-09-27T02:47:33.816Z,98433.88
2022-09-27T02:52:17.224Z,98427.03
2022-09-27T02:56:49.527Z,98421.75
2022-09-27T03:01:16.244Z,98426.50
2022-09-27T03:05:38.535Z,98422.25
2022-09-27T03:09:55.434Z,98423.50
2022-09-27T03:14:11.466Z,98409.22
2022-09-27T03:18:27.807Z,98404.19
2022-09-27T03:22:43.734Z,98396.66
2022-09-27T03:26:59.685Z,98396.03
2022-09-27T03:31:15.608Z,98388.16
2022-09-27T03:35:31.914Z,98385.81
2022-09-27T03:39:47.989Z,98390.09
2022-09-27T03:44:04.513Z,98405.75
2022-09-27T03:48:23.419Z,98399.47
2022-09-27T03:52:44.102Z,98392.78
2022-09-27T03:57:00.017Z,98387.53
2022-09-27T04:01:16.294Z,98385.06
2022-09-27T04:05:32.813Z,98397.84
2022-09-27T04:09:48.791Z,98380.13
2022-09-27T04:14:05.756Z,98371.63
2022-09-27T04:18:21.787Z,98371.44
2022-09-27T04:22:41.754Z,98369.16
2022-09-27T04:26:57.812Z,98374.62
2022-09-27T04:31:13.833Z,98367.88
2022-09-27T04:35:48.379Z,98365.75
2022-09-27T04:40:05.359Z,98372.44
2022-09-27T04:44:21.405Z,98364.78
2022-09-27T04:48:38.052Z,98368.13
2022-09-27T04:52:54.697Z,98370.97
2022-09-27T04:57:12.300Z,98356.34
2022-09-27T05:01:28.775Z,98351.56
2022-09-27T05:05:44.881Z,98359.66
2022-09-27T05:10:00.871Z,98357.53
2022-09-27T05:14:17.002Z,98363.31
2022-09-27T05:18:33.586Z,98362.00
2022-09-27T05:22:49.541Z,98347.81
2022-09-27T05:27:08.376Z,98339.44
2022-09-27T05:31:26.632Z,98328.66
2022-09-27T05:35:47.365Z,98331.22
2022-09-27T05:40:17.019Z,98330.94
2022-09-27T05:44:39.907Z,98336.34
2022-09-27T05:48:55.812Z,98345.00
2022-09-27T05:53:13.333Z,98326.81
2022-09-27T05:57:29.507Z,98324.41
2022-09-27T06:01:45.625Z,98321.72
2022-09-27T06:06:07.894Z,98315.72
2022-09-27T06:10:23.951Z,98318.00
2022-09-27T06:14:40.559Z,98307.47
2022-09-27T06:18:57.226Z,98294.37
2022-09-27T06:23:15.487Z,98312.34
2022-09-27T06:27:32.490Z,98322.06
2022-09-27T06:31:49.147Z,98315.13
2022-09-27T06:36:07.130Z,98326.38
2022-09-27T06:40:27.437Z,98325.91
2022-09-27T06:44:48.202Z,98320.84
2022-09-27T06:49:06.931Z,98338.13
2022-09-27T06:53:23.561Z,98326.81
2022-09-27T06:57:58.052Z,98331.41
2022-09-27T07:02:14.254Z,98323.16
2022-09-27T07:06:31.318Z,98323.53
2022-09-27T07:10:47.597Z,98318.13
2022-09-27T07:15:04.228Z,98324.34
2022-09-27T07:19:20.195Z,98311.25
2022-09-27T07:23:37.498Z,98303.34
2022-09-27T07:27:53.501Z,98302.44
2022-09-27T07:32:09.470Z,98323.69
2022-09-27T07:36:25.509Z,98325.78
2022-09-27T07:40:42.182Z,98331.22
2022-09-27T07:44:59.307Z,98336.06
2022-09-27T07:49:15.376Z,98336.84
2022-09-27T07:53:31.462Z,98329.53
2022-09-27T07:57:47.640Z,98322.88
2022-09-27T08:02:04.136Z,98334.78
2022-09-27T08:06:20.315Z,98329.19
2022-09-27T08:10:37.221Z,98314.16
2022-09-27T08:14:53.302Z,98295.06
2022-09-27T08:19:09.385Z,98292.00
2022-09-27T08:23:25.559Z,98293.19
2022-09-27T08:27:42.272Z,98286.63
2022-09-27T08:31:58.264Z,98279.34
2022-09-27T08:36:14.329Z,98278.84
2022-09-27T08:40:59.407Z,98292.63
2022-09-27T08:45:29.794Z,98288.63
2022-09-27T08:50:20.597Z,98290.50
2022-09-27T08:54:37.646Z,98296.28
2022-09-27T08:59:10.522Z,98284.75
2022-09-27T09:03:31.414Z,98287.03
2022-09-27T09:07:59.388Z,98282.00
2022-09-27T09:12:48.205Z,98277.53
2022-09-27T09:17:07.093Z,98280.97
2022-09-27T09:21:47.315Z,98265.47
2022-09-27T09:26:30.356Z,98257.56
2022-09-27T09:31:21.148Z,98265.81
2022-09-27T09:35:48.506Z,98244.12
2022-09-27T09:40:27.936Z,98233.91
2022-09-27T09:44:54.603Z,98233.31
2022-09-27T09:49:29.109Z,98235.22
2022-09-27T09:53:45.069Z,98241.41
2022-09-27T09:58:07.107Z,98236.81
2022-09-27T10:02:34.146Z,98237.81
2022-09-27T10:06:51.122Z,98212.28
2022-09-27T10:11:14.617Z,98217.59
2022-09-27T10:15:31.780Z,98221.81
2022-09-27T10:19:48.737Z,98209.34
2022-09-27T10:24:18.225Z,98202.75
2022-09-27T10:28:38.903Z,98209.53
2022-09-27T10:33:00.380Z,98211.22
2022-09-27T10:37:17.705Z,98204.84
2022-09-27T10:41:38.723Z,98210.50
2022-09-27T10:46:09.872Z,98188.28
2022-09-27T10:55:25.577Z,98182.78
2022-09-27T10:59:44.005Z,98185.56
2022-09-27T11:04:00.481Z,98189.06
2022-09-27T11:08:19.548Z,98174.63
2022-09-27T11:12:36.876Z,98177.75
2022-09-27T11:16:55.874Z,98169.75
2022-09-27T11:21:46.182Z,98159.09
2022-09-27T11:26:44.959Z,98162.03
2022-09-27T11:31:22.243Z,98155.00
2022-09-27T11:36:00.115Z,98147.94
2022-09-27T11:40:54.375Z,98139.22
2022-09-27T11:45:50.467Z,98129.44
2022-09-27T11:50:18.473Z,98120.03
2022-09-27T11:54:43.302Z,98122.97
2022-09-27T11:59:12.706Z,98121.38
2022-09-27T12:03:54.797Z,98115.47
2022-09-27T12:08:38.920Z,98105.09
2022-09-27T12:12:57.075Z,98097.81
2022-09-27T12:17:27.699Z,98098.25
2022-09-27T12:21:43.951Z,98094.16
2022-09-27T12:26:04.789Z,98081.47
2022-09-27T12:30:20.765Z,98092.25
2022-09-27T12:34:56.506Z,98085.19
2022-09-27T12:39:29.182Z,98079.34
2022-09-27T12:43:49.557Z,98078.22
2022-09-27T12:48:18.041Z,98076.91
2022-09-27T12:52:39.549Z,98070.41
2022-09-27T12:57:18.097Z,98057.78
2022-09-27T13:01:47.219Z,98057.50
2022-09-27T13:06:51.884Z,98059.09
2022-09-27T13:11:16.955Z,98042.25
2022-09-27T13:15:35.393Z,98037.66
2022-09-27T13:19:51.784Z,98032.56
2022-09-27T13:24:32.671Z,98025.88
2022-09-27T13:28:48.645Z,98034.69
2022-09-27T13:33:10.403Z,98030.91
2022-09-27T13:37:44.642Z,98026.00
2022-09-27T13:42:30.563Z,98028.44
2022-09-27T13:46:53.751Z,98134.88
2022-09-27T13:51:36.325Z,98134.00
2022-09-27T13:55:54.066Z,98137.44
2022-09-27T14:00:25.242Z,98143.66
2022-09-27T14:04:50.011Z,98128.72
2022-09-27T14:09:15.309Z,98118.44
2022-09-27T14:13:32.961Z,98128.72
2022-09-27T14:17:49.054Z,98135.78
2022-09-27T14:22:05.192Z,98140.66
2022-09-27T14:26:27.288Z,98146.59
2022-09-27T14:30:43.852Z,98147.03
2022-09-27T14:35:07.308Z,98151.75
2022-09-27T14:39:25.777Z,98144.94
2022-09-27T14:43:47.045Z,98130.97
2022-09-27T14:48:18.185Z,98126.37
2022-09-27T14:52:36.083Z,98142.03
2022-09-27T14:56:53.572Z,98165.28
2022-09-27T15:01:18.974Z,98175.53
2022-09-27T15:05:35.800Z,98166.81
2022-09-27T15:09:52.402Z,98177.59
2022-09-27T15:14:13.923Z,98174.19
2022-09-27T15:18:39.905Z,98181.09
2022-09-27T15:22:57.625Z,98175.41
2022-09-27T15:27:19.211Z,98186.59
2022-09-27T15:31:37.075Z,98188.03
2022-09-27T15:36:04.634Z,98201.78
2022-09-27T15:40:21.100Z,98221.09
2022-09-27T15:44:47.194Z,98215.47
2022-09-27T15:49:37.273Z,98218.94
2022-09-27T15:53:53.352Z,98214.56
2022-09-27T15:58:20.486Z,98206.66
2022-09-27T16:02:36.900Z,98209.75
2022-09-27T16:06:54.503Z,98205.03
2022-09-27T16:11:16.091Z,98212.94
2022-09-27T16:15:32.569Z,98222.38
2022-09-27T16:19:50.668Z,98212.75
2022-09-27T16:24:06.709Z,98218.50
2022-09-27T16:28:22.832Z,98222.16
2022-09-27T16:32:46.809Z,98227.53
2022-09-27T16:37:05.062Z,98235.09
2022-09-27T16:41:22.395Z,98235.13
2022-09-27T16:45:38.388Z,98230.97
2022-09-27T16:50:13.044Z,98232.00
2022-09-27T16:54:30.084Z,98229.94
2022-09-27T16:58:48.124Z,98245.16
2022-09-27T17:03:04.676Z,98243.59
2022-09-27T17:07:21.260Z,98254.03
2022-09-27T17:11:37.357Z,98251.66
2022-09-27T17:15:56.555Z,98259.62
2022-09-27T17:20:12.904Z,98250.63
2022-09-27T17:24:29.032Z,98250.19
2022-09-27T17:28:45.609Z,98249.72
2022-09-27T17:33:01.641Z,98260.78
2022-09-27T17:37:18.352Z,98267.81
2022-09-27T17:41:39.632Z,98270.28
2022-09-27T17:45:56.136Z,98288.47
2022-09-27T17:50:32.504Z,98281.31
2022-09-27T17:54:48.701Z,98275.38
2022-09-27T17:59:05.943Z,98280.44
2022-09-27T18:03:22.030Z,98283.47
2022-09-27T18:07:38.152Z,98277.19
2022-09-27T18:11:54.755Z,98273.66
2022-09-27T18:16:15.427Z,98264.44
2022-09-27T18:20:35.020Z,98282.66
2022-09-27T18:24:51.246Z,98277.91
2022-09-27T18:29:15.677Z,98295.25
2022-09-27T18:33:33.207Z,98300.63
2022-09-27T18:37:49.506Z,98310.75
2022-09-27T18:42:05.729Z,98324.19
2022-09-27T18:46:37.627Z,98327.72
2022-09-27T18:50:53.899Z,98334.72
2022-09-27T18:55:10.322Z,98320.03
2022-09-27T18:59:26.543Z,98327.47
2022-09-27T19:03:43.347Z,98329.75
2022-09-27T19:07:59.410Z,98326.16
2022-09-27T19:12:16.650Z,98331.31
2022-09-27T19:16:33.614Z,98349.31
2022-09-27T19:20:50.153Z,98341.88
2022-09-27T19:25:06.948Z,98344.28
2022-09-27T19:29:23.056Z,98356.38
2022-09-27T19:33:39.311Z,98353.63
2022-09-27T19:37:55.420Z,98358.88
2022-09-27T19:42:11.409Z,98350.97
2022-09-27T19:46:27.544Z,98357.72
2022-09-27T19:50:43.578Z,98351.25
2022-09-27T19:55:07.209Z,98356.25
2022-09-27T19:59:25.134Z,98340.47
2022-09-27T20:03:43.083Z,98350.88
2022-09-27T20:07:59.088Z,98349.69
2022-09-27T20:12:15.098Z,98357.63
2022-09-27T20:16:32.889Z,98346.69
2022-09-27T20:20:49.057Z,98353.25
2022-09-27T20:25:05.378Z,98354.59
2022-09-27T20:29:21.492Z,98363.47
2022-09-27T20:33:46.971Z,98365.97
2022-09-27T20:38:03.165Z,98370.81
2022-09-27T20:42:20.050Z,98369.41
2022-09-27T20:46:37.655Z,98365.72
2022-09-27T20:51:04.400Z,98371.00
2022-09-27T20:55:21.056Z,98365.38
2022-09-27T20:59:37.035Z,98362.34
2022-09-27T21:04:02.032Z,98370.09
2022-09-27T21:08:17.979Z,98368.44
2022-09-27T21:12:33.937Z,98376.03
2022-09-27T21:16:49.874Z,98375.22
2022-09-27T21:21:07.313Z,98384.69
2022-09-27T21:25:23.322Z,98385.19
2022-09-27T21:29:39.361Z,98373.28
2022-09-27T21:33:59.061Z,98379.56
2022-09-27T21:38:15.204Z,98377.97
2022-09-27T21:42:31.192Z,98393.06
2022-09-27T21:46:47.193Z,98375.06
2022-09-27T21:51:13.117Z,98367.81
2022-09-27T21:55:29.100Z,98362.03
2022-09-27T21:59:45.117Z,98370.53
2022-09-27T22:04:03.755Z,98383.75
2022-09-27T22:08:20.472Z,98392.56
2022-09-27T22:12:36.547Z,98381.97
2022-09-27T22:16:52.498Z,98392.25
2022-09-27T22:21:11.029Z,98395.13
2022-09-27T22:25:28.237Z,98388.34
2022-09-27T22:29:44.304Z,98399.53
2022-09-27T22:34:01.899Z,98387.25
2022-09-27T22:38:17.873Z,98377.87
2022-09-27T22:42:33.879Z,98399.19
2022-09-27T22:46:50.020Z,98403.59
2022-09-27T22:51:06.892Z,98413.91
2022-09-27T22:55:22.878Z,98404.06
2022-09-27T22:59:38.791Z,98410.31
2022-09-27T23:03:56.122Z,98406.34
2022-09-27T23:08:12.265Z,98407.66
2022-09-27T23:12:28.335Z,98424.91
2022-09-27T23:16:44.376Z,98425.19
2022-09-27T23:21:03.675Z,98430.84
2022-09-27T23:25:21.479Z,98430.53
2022-09-27T23:29:37.595Z,98421.25
2022-09-27T23:33:54.439Z,98419.94
2022-09-27T23:38:10.397Z,98414.75
2022-09-27T23:42:27.744Z,98430.50
2022-09-27T23:46:43.937Z,98441.06
2022-09-27T23:50:59.916Z,98439.47
2022-09-27T23:55:16.042Z,98441.41
2022-09-27T23:59:32.103Z,98429.19
